TAF LEGR
LEGR 072300Z 0800/0824 VRB02KT CAVOK TX14/0815Z TN05/0807Z PROB40 TEMPO 0802/0809 27010KT 4000 RA BR BKN008 BECMG 0810/0812 29010KT BECMG 0818/0820 VRB02KT=
METAR LEGR
LEGR 080230Z AUTO 00000KT 9999 BKN015 BKN022 OVC034 10/10 Q1019=
LEGR 080200Z AUTO VRB02KT 9999 BKN020 BKN026 OVC038 10/10 Q1019=
LEGR 080130Z AUTO 00000KT 9999 BKN016 10/09 Q1019=
LEGR 080100Z AUTO 17002KT 9999 OVC013 10/09 Q1019=
LEGR 080030Z AUTO VRB02KT 9999 OVC015 10/09 Q1020=
WC LEGR
WS LEGR
WV LEGR